sensor_id;sensor_type;location;lat;lon;timestamp;temperature;humidity
324;DHT22;149;51.094;17.002;2023-03-13T00:01:23;6.50;99.90
324;DHT22;149;51.094;17.002;2023-03-13T00:03:51;6.50;99.90
324;DHT22;149;51.094;17.002;2023-03-13T00:06:18;6.60;99.90
324;DHT22;149;51.094;17.002;2023-03-13T00:08:45;6.70;99.90
324;DHT22;149;51.094;17.002;2023-03-13T00:11:13;6.70;99.90
324;DHT22;149;51.094;17.002;2023-03-13T00:13:41;6.70;99.90
324;DHT22;149;51.094;17.002;2023-03-13T00:16:11;6.80;99.90
324;DHT22;149;51.094;17.002;2023-03-13T00:18:38;6.80;99.90
324;DHT22;149;51.094;17.002;2023-03-13T00:21:10;6.80;99.90
324;DHT22;149;51.094;17.002;2023-03-13T00:23:38;6.70;99.90
324;DHT22;149;51.094;17.002;2023-03-13T00:26:08;6.70;99.90
324;DHT22;149;51.094;17.002;2023-03-13T00:28:37;6.60;99.90
324;DHT22;149;51.094;17.002;2023-03-13T00:31:05;6.60;99.90
324;DHT22;149;51.094;17.002;2023-03-13T00:33:34;6.60;99.90
324;DHT22;149;51.094;17.002;2023-03-13T00:36:04;6.50;99.90
324;DHT22;149;51.094;17.002;2023-03-13T00:38:32;6.60;99.90
324;DHT22;149;51.094;17.002;2023-03-13T00:41:13;6.50;99.90
324;DHT22;149;51.094;17.002;2023-03-13T00:43:42;6.60;99.90
324;DHT22;149;51.094;17.002;2023-03-13T00:46:10;6.60;99.90
324;DHT22;149;51.094;17.002;2023-03-13T00:48:37;6.60;99.90
324;DHT22;149;51.094;17.002;2023-03-13T00:51:05;6.60;99.90
324;DHT22;149;51.094;17.002;2023-03-13T00:53:32;6.70;99.90
324;DHT22;149;51.094;17.002;2023-03-13T00:56:02;6.70;99.90
324;DHT22;149;51.094;17.002;2023-03-13T00:58:31;6.70;99.90
324;DHT22;149;51.094;17.002;2023-03-13T01:01:07;6.70;99.90
324;DHT22;149;51.094;17.002;2023-03-13T01:03:36;6.60;99.90
324;DHT22;149;51.094;17.002;2023-03-13T01:06:05;6.70;99.90
324;DHT22;149;51.094;17.002;2023-03-13T01:08:33;6.80;99.90
324;DHT22;149;51.094;17.002;2023-03-13T01:11:09;6.80;99.90
324;DHT22;149;51.094;17.002;2023-03-13T01:13:36;6.80;99.90
324;DHT22;149;51.094;17.002;2023-03-13T01:18:36;6.70;99.90
324;DHT22;149;51.094;17.002;2023-03-13T01:21:04;6.70;99.90
324;DHT22;149;51.094;17.002;2023-03-13T01:23:31;6.70;99.90
324;DHT22;149;51.094;17.002;2023-03-13T01:25:58;6.70;99.90
324;DHT22;149;51.094;17.002;2023-03-13T01:28:26;6.90;99.90
324;DHT22;149;51.094;17.002;2023-03-13T01:30:53;6.70;99.90
324;DHT22;149;51.094;17.002;2023-03-13T01:33:20;6.80;99.90
324;DHT22;149;51.094;17.002;2023-03-13T01:35:47;7.00;99.90
324;DHT22;149;51.094;17.002;2023-03-13T01:38:15;7.00;99.90
324;DHT22;149;51.094;17.002;2023-03-13T01:40:47;7.10;99.90
324;DHT22;149;51.094;17.002;2023-03-13T01:43:25;7.00;99.90
324;DHT22;149;51.094;17.002;2023-03-13T01:48:30;7.00;99.90
324;DHT22;149;51.094;17.002;2023-03-13T01:51:03;7.00;99.90
324;DHT22;149;51.094;17.002;2023-03-13T01:53:32;6.90;99.90
324;DHT22;149;51.094;17.002;2023-03-13T01:56:01;7.00;99.90
324;DHT22;149;51.094;17.002;2023-03-13T01:58:31;7.00;99.90
324;DHT22;149;51.094;17.002;2023-03-13T02:00:59;7.20;99.90
324;DHT22;149;51.094;17.002;2023-03-13T02:03:27;7.20;99.90
324;DHT22;149;51.094;17.002;2023-03-13T02:05:55;7.40;99.90
324;DHT22;149;51.094;17.002;2023-03-13T02:08:30;7.60;99.90
324;DHT22;149;51.094;17.002;2023-03-13T02:13:30;7.60;99.90
324;DHT22;149;51.094;17.002;2023-03-13T02:15:58;7.80;99.90
324;DHT22;149;51.094;17.002;2023-03-13T02:18:26;7.80;99.90
324;DHT22;149;51.094;17.002;2023-03-13T02:20:57;7.90;99.90
324;DHT22;149;51.094;17.002;2023-03-13T02:23:34;7.90;99.90
324;DHT22;149;51.094;17.002;2023-03-13T02:26:05;7.80;99.90
324;DHT22;149;51.094;17.002;2023-03-13T02:28:34;7.80;99.90
324;DHT22;149;51.094;17.002;2023-03-13T02:31:05;7.40;99.90
324;DHT22;149;51.094;17.002;2023-03-13T02:33:36;7.20;99.90
324;DHT22;149;51.094;17.002;2023-03-13T02:36:04;7.10;99.90
324;DHT22;149;51.094;17.002;2023-03-13T02:38:37;7.00;99.90
324;DHT22;149;51.094;17.002;2023-03-13T02:41:05;6.70;99.90
324;DHT22;149;51.094;17.002;2023-03-13T02:43:34;6.70;99.90
324;DHT22;149;51.094;17.002;2023-03-13T02:48:41;6.60;99.90
324;DHT22;149;51.094;17.002;2023-03-13T02:51:24;6.50;99.90
324;DHT22;149;51.094;17.002;2023-03-13T02:53:56;6.70;99.90
324;DHT22;149;51.094;17.002;2023-03-13T02:56:25;6.60;99.90
324;DHT22;149;51.094;17.002;2023-03-13T02:58:53;6.60;99.90
324;DHT22;149;51.094;17.002;2023-03-13T03:01:20;6.80;99.90
324;DHT22;149;51.094;17.002;2023-03-13T03:03:47;6.90;99.90
324;DHT22;149;51.094;17.002;2023-03-13T03:06:14;7.00;99.90
324;DHT22;149;51.094;17.002;2023-03-13T03:08:42;7.00;99.90
324;DHT22;149;51.094;17.002;2023-03-13T03:11:09;6.90;99.90
324;DHT22;149;51.094;17.002;2023-03-13T03:13:37;7.00;99.90
324;DHT22;149;51.094;17.002;2023-03-13T03:16:07;6.90;99.90
324;DHT22;149;51.094;17.002;2023-03-13T03:18:35;7.10;99.90
324;DHT22;149;51.094;17.002;2023-03-13T03:21:03;7.10;99.90
324;DHT22;149;51.094;17.002;2023-03-13T03:23:33;7.10;99.90
324;DHT22;149;51.094;17.002;2023-03-13T03:26:01;7.00;99.90
324;DHT22;149;51.094;17.002;2023-03-13T03:28:27;6.90;99.90
324;DHT22;149;51.094;17.002;2023-03-13T03:30:55;6.90;99.90
324;DHT22;149;51.094;17.002;2023-03-13T03:33:23;7.10;99.90
324;DHT22;149;51.094;17.002;2023-03-13T03:35:50;7.00;99.90
324;DHT22;149;51.094;17.002;2023-03-13T03:38:17;7.10;99.90
324;DHT22;149;51.094;17.002;2023-03-13T03:40:44;7.00;99.90
324;DHT22;149;51.094;17.002;2023-03-13T03:43:11;7.00;99.90
324;DHT22;149;51.094;17.002;2023-03-13T03:45:38;7.10;99.90
324;DHT22;149;51.094;17.002;2023-03-13T03:48:05;7.30;99.90
324;DHT22;149;51.094;17.002;2023-03-13T03:50:32;7.40;99.90
324;DHT22;149;51.094;17.002;2023-03-13T03:53:02;7.50;99.90
324;DHT22;149;51.094;17.002;2023-03-13T03:55:31;7.40;99.90
324;DHT22;149;51.094;17.002;2023-03-13T03:58:00;7.20;99.90
324;DHT22;149;51.094;17.002;2023-03-13T04:00:27;7.20;99.90
324;DHT22;149;51.094;17.002;2023-03-13T04:02:55;7.50;99.90
324;DHT22;149;51.094;17.002;2023-03-13T04:05:22;7.60;99.90
324;DHT22;149;51.094;17.002;2023-03-13T04:07:50;7.80;99.90
324;DHT22;149;51.094;17.002;2023-03-13T04:10:17;7.70;99.90
324;DHT22;149;51.094;17.002;2023-03-13T04:12:44;7.70;99.90
324;DHT22;149;51.094;17.002;2023-03-13T04:15:11;7.60;99.90
324;DHT22;149;51.094;17.002;2023-03-13T04:17:37;7.60;99.90
324;DHT22;149;51.094;17.002;2023-03-13T04:20:05;7.60;99.90
324;DHT22;149;51.094;17.002;2023-03-13T04:22:33;7.50;99.90
324;DHT22;149;51.094;17.002;2023-03-13T04:25:00;7.60;99.90
324;DHT22;149;51.094;17.002;2023-03-13T04:27:27;7.50;99.90
324;DHT22;149;51.094;17.002;2023-03-13T04:29:53;7.60;99.90
324;DHT22;149;51.094;17.002;2023-03-13T04:32:20;7.60;99.90
324;DHT22;149;51.094;17.002;2023-03-13T04:34:47;7.60;99.90
324;DHT22;149;51.094;17.002;2023-03-13T04:37:15;7.50;99.90
324;DHT22;149;51.094;17.002;2023-03-13T04:39:42;7.50;99.90
324;DHT22;149;51.094;17.002;2023-03-13T04:42:10;7.40;99.90
324;DHT22;149;51.094;17.002;2023-03-13T04:44:37;7.30;99.90
324;DHT22;149;51.094;17.002;2023-03-13T04:47:06;7.30;99.90
324;DHT22;149;51.094;17.002;2023-03-13T04:49:33;7.10;99.90
324;DHT22;149;51.094;17.002;2023-03-13T04:52:01;7.10;99.90
324;DHT22;149;51.094;17.002;2023-03-13T04:54:28;7.00;99.90
324;DHT22;149;51.094;17.002;2023-03-13T04:56:55;7.00;99.90
324;DHT22;149;51.094;17.002;2023-03-13T04:59:22;7.20;99.90
324;DHT22;149;51.094;17.002;2023-03-13T05:01:49;7.10;99.90
324;DHT22;149;51.094;17.002;2023-03-13T05:04:21;7.10;99.90
324;DHT22;149;51.094;17.002;2023-03-13T05:06:48;7.00;99.90
324;DHT22;149;51.094;17.002;2023-03-13T05:09:16;7.00;99.90
324;DHT22;149;51.094;17.002;2023-03-13T05:11:43;7.00;99.90
324;DHT22;149;51.094;17.002;2023-03-13T05:14:11;6.90;99.90
324;DHT22;149;51.094;17.002;2023-03-13T05:16:39;6.80;99.90
324;DHT22;149;51.094;17.002;2023-03-13T05:19:06;6.70;99.90
324;DHT22;149;51.094;17.002;2023-03-13T05:21:33;6.70;99.90
324;DHT22;149;51.094;17.002;2023-03-13T05:24:00;6.70;99.90
324;DHT22;149;51.094;17.002;2023-03-13T05:26:27;6.60;99.90
324;DHT22;149;51.094;17.002;2023-03-13T05:28:54;6.60;99.90
324;DHT22;149;51.094;17.002;2023-03-13T05:31:20;6.80;99.90
324;DHT22;149;51.094;17.002;2023-03-13T05:33:47;6.70;99.90
324;DHT22;149;51.094;17.002;2023-03-13T05:36:14;6.80;99.90
324;DHT22;149;51.094;17.002;2023-03-13T05:38:41;6.90;99.90
324;DHT22;149;51.094;17.002;2023-03-13T05:41:08;7.00;99.90
324;DHT22;149;51.094;17.002;2023-03-13T05:43:35;7.10;99.90
324;DHT22;149;51.094;17.002;2023-03-13T05:46:02;7.30;99.90
324;DHT22;149;51.094;17.002;2023-03-13T05:48:29;7.20;99.90
324;DHT22;149;51.094;17.002;2023-03-13T05:50:56;7.30;99.90
324;DHT22;149;51.094;17.002;2023-03-13T05:53:23;7.30;99.90
324;DHT22;149;51.094;17.002;2023-03-13T05:55:50;7.50;99.90
324;DHT22;149;51.094;17.002;2023-03-13T05:58:16;7.40;99.90
324;DHT22;149;51.094;17.002;2023-03-13T06:00:44;7.60;99.90
324;DHT22;149;51.094;17.002;2023-03-13T06:03:10;7.60;99.90
324;DHT22;149;51.094;17.002;2023-03-13T06:05:40;7.60;99.90
324;DHT22;149;51.094;17.002;2023-03-13T06:08:06;7.60;99.90
324;DHT22;149;51.094;17.002;2023-03-13T06:10:34;7.80;99.90
324;DHT22;149;51.094;17.002;2023-03-13T06:13:00;7.80;99.90
324;DHT22;149;51.094;17.002;2023-03-13T06:15:53;7.90;99.90
324;DHT22;149;51.094;17.002;2023-03-13T06:18:22;7.90;99.90
324;DHT22;149;51.094;17.002;2023-03-13T06:20:49;8.00;99.90
324;DHT22;149;51.094;17.002;2023-03-13T06:23:21;8.20;99.90
324;DHT22;149;51.094;17.002;2023-03-13T06:25:48;8.30;99.90
324;DHT22;149;51.094;17.002;2023-03-13T06:28:16;8.40;99.90
324;DHT22;149;51.094;17.002;2023-03-13T06:30:43;8.30;99.90
324;DHT22;149;51.094;17.002;2023-03-13T06:33:11;8.40;99.90
324;DHT22;149;51.094;17.002;2023-03-13T06:35:41;8.60;99.90
324;DHT22;149;51.094;17.002;2023-03-13T06:38:24;8.60;99.90
324;DHT22;149;51.094;17.002;2023-03-13T06:40:51;8.80;99.90
324;DHT22;149;51.094;17.002;2023-03-13T06:43:19;8.80;99.90
324;DHT22;149;51.094;17.002;2023-03-13T06:45:46;9.00;99.90
324;DHT22;149;51.094;17.002;2023-03-13T06:48:13;9.10;99.90
324;DHT22;149;51.094;17.002;2023-03-13T06:50:41;9.30;99.90
324;DHT22;149;51.094;17.002;2023-03-13T06:53:17;9.40;99.90
324;DHT22;149;51.094;17.002;2023-03-13T06:55:45;9.60;99.90
324;DHT22;149;51.094;17.002;2023-03-13T06:58:12;9.80;99.90
324;DHT22;149;51.094;17.002;2023-03-13T07:00:57;10.00;99.90
324;DHT22;149;51.094;17.002;2023-03-13T07:03:24;10.10;99.90
324;DHT22;149;51.094;17.002;2023-03-13T07:05:55;10.40;99.90
324;DHT22;149;51.094;17.002;2023-03-13T07:08:22;10.60;99.90
324;DHT22;149;51.094;17.002;2023-03-13T07:10:52;10.90;99.90
324;DHT22;149;51.094;17.002;2023-03-13T07:13:19;11.20;99.90
324;DHT22;149;51.094;17.002;2023-03-13T07:15:48;11.50;99.90
324;DHT22;149;51.094;17.002;2023-03-13T07:18:15;11.70;99.90
324;DHT22;149;51.094;17.002;2023-03-13T07:20:42;12.20;99.90
324;DHT22;149;51.094;17.002;2023-03-13T07:23:09;12.60;99.90
324;DHT22;149;51.094;17.002;2023-03-13T07:25:36;12.40;99.90
324;DHT22;149;51.094;17.002;2023-03-13T07:28:05;12.50;99.90
324;DHT22;149;51.094;17.002;2023-03-13T07:30:32;12.80;99.90
324;DHT22;149;51.094;17.002;2023-03-13T07:33:00;13.10;99.90
324;DHT22;149;51.094;17.002;2023-03-13T07:35:26;13.50;99.90
324;DHT22;149;51.094;17.002;2023-03-13T07:37:54;13.40;99.90
324;DHT22;149;51.094;17.002;2023-03-13T07:40:21;13.60;99.90
324;DHT22;149;51.094;17.002;2023-03-13T07:42:47;14.60;99.90
324;DHT22;149;51.094;17.002;2023-03-13T07:45:15;14.20;99.90
324;DHT22;149;51.094;17.002;2023-03-13T07:47:41;14.10;99.90
324;DHT22;149;51.094;17.002;2023-03-13T07:50:09;13.80;99.90
324;DHT22;149;51.094;17.002;2023-03-13T07:52:36;13.10;99.90
324;DHT22;149;51.094;17.002;2023-03-13T07:55:03;12.80;99.90
324;DHT22;149;51.094;17.002;2023-03-13T07:57:30;12.80;99.90
324;DHT22;149;51.094;17.002;2023-03-13T07:59:57;12.90;99.90
324;DHT22;149;51.094;17.002;2023-03-13T08:02:24;12.80;99.90
324;DHT22;149;51.094;17.002;2023-03-13T08:04:52;12.70;99.90
324;DHT22;149;51.094;17.002;2023-03-13T08:07:19;12.60;99.90
324;DHT22;149;51.094;17.002;2023-03-13T08:09:47;12.50;99.90
324;DHT22;149;51.094;17.002;2023-03-13T08:12:13;12.50;99.90
324;DHT22;149;51.094;17.002;2023-03-13T08:14:41;12.50;99.90
324;DHT22;149;51.094;17.002;2023-03-13T08:17:07;12.50;99.90
324;DHT22;149;51.094;17.002;2023-03-13T08:19:34;12.40;99.90
324;DHT22;149;51.094;17.002;2023-03-13T08:22:01;12.70;99.90
324;DHT22;149;51.094;17.002;2023-03-13T08:24:28;12.80;99.90
324;DHT22;149;51.094;17.002;2023-03-13T08:26:55;12.90;99.90
324;DHT22;149;51.094;17.002;2023-03-13T08:29:22;13.10;99.90
324;DHT22;149;51.094;17.002;2023-03-13T08:31:49;13.10;99.90
324;DHT22;149;51.094;17.002;2023-03-13T08:34:18;13.10;99.90
324;DHT22;149;51.094;17.002;2023-03-13T08:36:46;13.60;99.90
324;DHT22;149;51.094;17.002;2023-03-13T08:39:15;13.90;99.90
324;DHT22;149;51.094;17.002;2023-03-13T08:41:43;13.70;99.90
324;DHT22;149;51.094;17.002;2023-03-13T08:44:12;13.60;99.90
324;DHT22;149;51.094;17.002;2023-03-13T08:46:39;13.60;99.90
324;DHT22;149;51.094;17.002;2023-03-13T08:49:07;13.50;99.90
324;DHT22;149;51.094;17.002;2023-03-13T08:51:34;13.40;99.90
324;DHT22;149;51.094;17.002;2023-03-13T08:54:02;12.90;99.90
324;DHT22;149;51.094;17.002;2023-03-13T08:56:31;13.00;99.90
324;DHT22;149;51.094;17.002;2023-03-13T08:58:59;13.40;99.90
324;DHT22;149;51.094;17.002;2023-03-13T09:01:29;13.70;99.90
324;DHT22;149;51.094;17.002;2023-03-13T09:03:57;14.10;99.90
324;DHT22;149;51.094;17.002;2023-03-13T09:06:29;14.30;99.90
324;DHT22;149;51.094;17.002;2023-03-13T09:08:57;14.20;99.90
324;DHT22;149;51.094;17.002;2023-03-13T09:11:24;13.90;99.90
324;DHT22;149;51.094;17.002;2023-03-13T09:13:53;13.80;99.90
324;DHT22;149;51.094;17.002;2023-03-13T09:16:28;13.80;99.90
324;DHT22;149;51.094;17.002;2023-03-13T09:18:56;13.80;99.90
324;DHT22;149;51.094;17.002;2023-03-13T09:21:31;13.60;99.90
324;DHT22;149;51.094;17.002;2023-03-13T09:23:58;13.60;99.90
324;DHT22;149;51.094;17.002;2023-03-13T09:26:27;13.70;99.90
324;DHT22;149;51.094;17.002;2023-03-13T09:28:54;14.10;99.90
324;DHT22;149;51.094;17.002;2023-03-13T09:31:30;14.10;99.90
324;DHT22;149;51.094;17.002;2023-03-13T09:33:59;14.30;99.90
324;DHT22;149;51.094;17.002;2023-03-13T09:36:26;14.30;99.90
324;DHT22;149;51.094;17.002;2023-03-13T09:38:56;14.20;99.90
324;DHT22;149;51.094;17.002;2023-03-13T09:41:33;14.10;99.90
324;DHT22;149;51.094;17.002;2023-03-13T09:49:30;14.20;99.90
324;DHT22;149;51.094;17.002;2023-03-13T09:52:12;14.00;99.90
324;DHT22;149;51.094;17.002;2023-03-13T09:55:01;13.80;99.90
324;DHT22;149;51.094;17.002;2023-03-13T09:57:36;13.70;99.90
324;DHT22;149;51.094;17.002;2023-03-13T10:00:09;13.80;99.90
324;DHT22;149;51.094;17.002;2023-03-13T10:02:43;13.80;99.90
324;DHT22;149;51.094;17.002;2023-03-13T10:05:20;13.80;99.90
324;DHT22;149;51.094;17.002;2023-03-13T10:07:48;13.70;99.90
324;DHT22;149;51.094;17.002;2023-03-13T10:10:20;13.70;99.90
324;DHT22;149;51.094;17.002;2023-03-13T10:12:57;13.60;99.90
324;DHT22;149;51.094;17.002;2023-03-13T10:15:58;13.30;99.90
324;DHT22;149;51.094;17.002;2023-03-13T10:18:24;13.20;99.90
324;DHT22;149;51.094;17.002;2023-03-13T10:20:55;13.00;99.90
324;DHT22;149;51.094;17.002;2023-03-13T10:25:55;12.50;99.90
324;DHT22;149;51.094;17.002;2023-03-13T10:28:24;12.40;99.90
324;DHT22;149;51.094;17.002;2023-03-13T10:31:02;12.30;99.90
324;DHT22;149;51.094;17.002;2023-03-13T10:33:33;12.10;99.90
324;DHT22;149;51.094;17.002;2023-03-13T10:36:08;11.90;99.90
324;DHT22;149;51.094;17.002;2023-03-13T10:41:30;11.80;99.90
324;DHT22;149;51.094;17.002;2023-03-13T10:44:03;12.00;99.90
324;DHT22;149;51.094;17.002;2023-03-13T10:46:32;12.20;99.90
324;DHT22;149;51.094;17.002;2023-03-13T10:49:02;12.00;99.90
324;DHT22;149;51.094;17.002;2023-03-13T10:51:36;11.90;99.90
324;DHT22;149;51.094;17.002;2023-03-13T10:54:14;11.80;99.90
324;DHT22;149;51.094;17.002;2023-03-13T10:56:41;11.80;99.90
324;DHT22;149;51.094;17.002;2023-03-13T10:59:25;11.70;99.90
324;DHT22;149;51.094;17.002;2023-03-13T11:01:57;11.50;99.90
324;DHT22;149;51.094;17.002;2023-03-13T11:07:20;11.40;99.90
324;DHT22;149;51.094;17.002;2023-03-13T11:09:57;11.50;99.90
324;DHT22;149;51.094;17.002;2023-03-13T11:12:25;11.60;99.90
324;DHT22;149;51.094;17.002;2023-03-13T11:14:57;11.60;99.90
324;DHT22;149;51.094;17.002;2023-03-13T11:17:39;11.60;99.90
324;DHT22;149;51.094;17.002;2023-03-13T11:20:31;11.70;99.90
324;DHT22;149;51.094;17.002;2023-03-13T11:31:38;12.70;99.90
324;DHT22;149;51.094;17.002;2023-03-13T11:37:17;12.70;99.90
324;DHT22;149;51.094;17.002;2023-03-13T11:47:58;13.30;99.90
324;DHT22;149;51.094;17.002;2023-03-13T11:50:57;13.10;99.90
324;DHT22;149;51.094;17.002;2023-03-13T11:56:10;13.10;99.90
324;DHT22;149;51.094;17.002;2023-03-13T12:01:40;13.00;99.90
324;DHT22;149;51.094;17.002;2023-03-13T12:04:17;12.90;99.90
324;DHT22;149;51.094;17.002;2023-03-13T12:07:15;12.90;99.90
324;DHT22;149;51.094;17.002;2023-03-13T12:10:08;13.00;99.90
324;DHT22;149;51.094;17.002;2023-03-13T12:12:51;13.00;99.90
324;DHT22;149;51.094;17.002;2023-03-13T12:18:19;13.00;99.90
324;DHT22;149;51.094;17.002;2023-03-13T12:23:45;13.10;99.90
324;DHT22;149;51.094;17.002;2023-03-13T12:26:13;13.20;99.90
324;DHT22;149;51.094;17.002;2023-03-13T12:37:49;13.20;99.90
324;DHT22;149;51.094;17.002;2023-03-13T12:40:40;13.20;99.90
324;DHT22;149;51.094;17.002;2023-03-13T12:43:25;13.30;99.90
324;DHT22;149;51.094;17.002;2023-03-13T13:00:27;14.40;99.90
324;DHT22;149;51.094;17.002;2023-03-13T13:06:13;13.70;99.90
324;DHT22;149;51.094;17.002;2023-03-13T13:08:43;13.70;99.90
324;DHT22;149;51.094;17.002;2023-03-13T13:14:01;13.40;99.90
324;DHT22;149;51.094;17.002;2023-03-13T13:16:30;13.60;99.90
324;DHT22;149;51.094;17.002;2023-03-13T13:24:59;13.80;99.90
324;DHT22;149;51.094;17.002;2023-03-13T13:32:43;13.90;99.90
324;DHT22;149;51.094;17.002;2023-03-13T13:37:39;14.00;99.90
324;DHT22;149;51.094;17.002;2023-03-13T13:42:55;14.00;99.90
324;DHT22;149;51.094;17.002;2023-03-13T13:48:15;14.00;99.90
324;DHT22;149;51.094;17.002;2023-03-13T13:53:48;13.90;99.90
324;DHT22;149;51.094;17.002;2023-03-13T13:56:38;14.10;99.90
324;DHT22;149;51.094;17.002;2023-03-13T13:59:30;14.30;99.90
324;DHT22;149;51.094;17.002;2023-03-13T14:12:35;14.20;99.90
324;DHT22;149;51.094;17.002;2023-03-13T14:15:25;14.20;99.90
324;DHT22;149;51.094;17.002;2023-03-13T14:17:58;14.20;99.90
324;DHT22;149;51.094;17.002;2023-03-13T14:20:33;14.20;99.90
324;DHT22;149;51.094;17.002;2023-03-13T14:23:03;14.10;99.90
324;DHT22;149;51.094;17.002;2023-03-13T14:25:45;14.10;99.90
324;DHT22;149;51.094;17.002;2023-03-13T14:28:21;14.20;99.90
324;DHT22;149;51.094;17.002;2023-03-13T14:30:54;14.20;99.90
324;DHT22;149;51.094;17.002;2023-03-13T14:33:24;14.20;99.90
324;DHT22;149;51.094;17.002;2023-03-13T14:35:52;14.40;99.90
324;DHT22;149;51.094;17.002;2023-03-13T14:38:25;14.30;99.90
324;DHT22;149;51.094;17.002;2023-03-13T14:40:53;14.20;99.90
324;DHT22;149;51.094;17.002;2023-03-13T14:43:40;14.20;99.90
324;DHT22;149;51.094;17.002;2023-03-13T14:46:32;14.30;99.90
324;DHT22;149;51.094;17.002;2023-03-13T14:49:20;14.30;99.90
324;DHT22;149;51.094;17.002;2023-03-13T14:55:01;14.30;99.90
324;DHT22;149;51.094;17.002;2023-03-13T14:57:31;14.10;99.90
324;DHT22;149;51.094;17.002;2023-03-13T15:06:01;13.90;99.90
324;DHT22;149;51.094;17.002;2023-03-13T15:08:29;13.90;99.90
324;DHT22;149;51.094;17.002;2023-03-13T15:10:58;14.00;99.90
324;DHT22;149;51.094;17.002;2023-03-13T15:13:33;14.20;99.90
324;DHT22;149;51.094;17.002;2023-03-13T15:16:14;14.20;99.90
324;DHT22;149;51.094;17.002;2023-03-13T15:18:42;14.20;99.90
324;DHT22;149;51.094;17.002;2023-03-13T15:23:36;13.90;99.90
324;DHT22;149;51.094;17.002;2023-03-13T15:26:03;13.80;99.90
324;DHT22;149;51.094;17.002;2023-03-13T15:28:31;13.70;99.90
324;DHT22;149;51.094;17.002;2023-03-13T15:30:58;13.70;99.90
324;DHT22;149;51.094;17.002;2023-03-13T15:33:28;13.60;99.90
324;DHT22;149;51.094;17.002;2023-03-13T15:35:55;13.50;99.90
324;DHT22;149;51.094;17.002;2023-03-13T15:38:25;13.50;99.90
324;DHT22;149;51.094;17.002;2023-03-13T15:40:52;13.60;99.90
324;DHT22;149;51.094;17.002;2023-03-13T15:43:20;13.60;99.90
324;DHT22;149;51.094;17.002;2023-03-13T15:45:49;13.70;99.90
324;DHT22;149;51.094;17.002;2023-03-13T15:48:21;13.70;99.90
324;DHT22;149;51.094;17.002;2023-03-13T15:50:57;13.60;99.90
324;DHT22;149;51.094;17.002;2023-03-13T15:53:27;13.70;99.90
324;DHT22;149;51.094;17.002;2023-03-13T15:55:57;13.70;99.90
324;DHT22;149;51.094;17.002;2023-03-13T15:58:25;13.70;99.90
324;DHT22;149;51.094;17.002;2023-03-13T16:00:54;13.60;99.90
324;DHT22;149;51.094;17.002;2023-03-13T16:03:23;13.60;99.90
324;DHT22;149;51.094;17.002;2023-03-13T16:05:52;13.50;99.90
324;DHT22;149;51.094;17.002;2023-03-13T16:08:23;13.60;99.90
324;DHT22;149;51.094;17.002;2023-03-13T16:11:02;13.40;99.90
324;DHT22;149;51.094;17.002;2023-03-13T16:13:29;13.30;99.90
324;DHT22;149;51.094;17.002;2023-03-13T16:15:57;13.20;99.90
324;DHT22;149;51.094;17.002;2023-03-13T16:18:24;13.10;99.90
324;DHT22;149;51.094;17.002;2023-03-13T16:20:52;13.10;99.90
324;DHT22;149;51.094;17.002;2023-03-13T16:23:19;13.00;99.90
324;DHT22;149;51.094;17.002;2023-03-13T16:25:46;13.00;99.90
324;DHT22;149;51.094;17.002;2023-03-13T16:28:15;12.90;99.90
324;DHT22;149;51.094;17.002;2023-03-13T16:30:44;12.90;99.90
324;DHT22;149;51.094;17.002;2023-03-13T16:33:13;12.80;99.90
324;DHT22;149;51.094;17.002;2023-03-13T16:35:40;12.70;99.90
324;DHT22;149;51.094;17.002;2023-03-13T16:38:10;12.70;99.90
324;DHT22;149;51.094;17.002;2023-03-13T16:40:37;12.60;99.90
324;DHT22;149;51.094;17.002;2023-03-13T16:43:04;12.60;99.90
324;DHT22;149;51.094;17.002;2023-03-13T16:45:30;12.60;99.90
324;DHT22;149;51.094;17.002;2023-03-13T16:47:57;12.40;99.90
324;DHT22;149;51.094;17.002;2023-03-13T16:50:34;12.30;99.90
324;DHT22;149;51.094;17.002;2023-03-13T16:53:02;12.20;99.90
324;DHT22;149;51.094;17.002;2023-03-13T16:55:29;12.20;99.90
324;DHT22;149;51.094;17.002;2023-03-13T16:58:03;12.20;99.90
324;DHT22;149;51.094;17.002;2023-03-13T17:00:31;12.10;99.90
324;DHT22;149;51.094;17.002;2023-03-13T17:02:58;12.10;99.90
324;DHT22;149;51.094;17.002;2023-03-13T17:05:27;12.00;99.90
324;DHT22;149;51.094;17.002;2023-03-13T17:07:54;12.10;99.90
324;DHT22;149;51.094;17.002;2023-03-13T17:10:25;12.00;99.90
324;DHT22;149;51.094;17.002;2023-03-13T17:12:52;12.00;99.90
324;DHT22;149;51.094;17.002;2023-03-13T17:15:21;11.90;99.90
324;DHT22;149;51.094;17.002;2023-03-13T17:17:49;11.80;99.90
324;DHT22;149;51.094;17.002;2023-03-13T17:20:27;11.80;99.90
324;DHT22;149;51.094;17.002;2023-03-13T17:22:55;11.80;99.90
324;DHT22;149;51.094;17.002;2023-03-13T17:25:23;11.90;99.90
324;DHT22;149;51.094;17.002;2023-03-13T17:27:52;11.80;99.90
324;DHT22;149;51.094;17.002;2023-03-13T17:30:25;11.70;99.90
324;DHT22;149;51.094;17.002;2023-03-13T17:32:52;11.80;99.90
324;DHT22;149;51.094;17.002;2023-03-13T17:35:19;11.70;99.90
324;DHT22;149;51.094;17.002;2023-03-13T17:37:47;11.60;99.90
324;DHT22;149;51.094;17.002;2023-03-13T17:40:25;11.70;99.90
324;DHT22;149;51.094;17.002;2023-03-13T17:42:52;11.70;99.90
324;DHT22;149;51.094;17.002;2023-03-13T17:45:24;11.70;99.90
324;DHT22;149;51.094;17.002;2023-03-13T17:47:52;11.70;99.90
324;DHT22;149;51.094;17.002;2023-03-13T17:50:23;11.60;99.90
324;DHT22;149;51.094;17.002;2023-03-13T17:52:53;11.40;99.90
324;DHT22;149;51.094;17.002;2023-03-13T17:55:21;11.50;99.90
324;DHT22;149;51.094;17.002;2023-03-13T17:57:48;11.40;99.90
324;DHT22;149;51.094;17.002;2023-03-13T18:00:22;11.60;99.90
324;DHT22;149;51.094;17.002;2023-03-13T18:02:50;11.80;99.90
324;DHT22;149;51.094;17.002;2023-03-13T18:05:17;12.00;99.90
324;DHT22;149;51.094;17.002;2023-03-13T18:07:45;12.10;99.90
324;DHT22;149;51.094;17.002;2023-03-13T18:12:47;11.90;99.90
324;DHT22;149;51.094;17.002;2023-03-13T18:15:16;11.90;99.90
324;DHT22;149;51.094;17.002;2023-03-13T18:17:43;12.00;99.90
324;DHT22;149;51.094;17.002;2023-03-13T18:20:16;12.00;99.90
324;DHT22;149;51.094;17.002;2023-03-13T18:22:44;12.10;99.90
324;DHT22;149;51.094;17.002;2023-03-13T18:25:12;12.00;99.90
324;DHT22;149;51.094;17.002;2023-03-13T18:27:39;11.90;99.90
324;DHT22;149;51.094;17.002;2023-03-13T18:30:15;12.00;99.90
324;DHT22;149;51.094;17.002;2023-03-13T18:32:42;12.00;99.90
324;DHT22;149;51.094;17.002;2023-03-13T18:35:10;12.00;99.90
324;DHT22;149;51.094;17.002;2023-03-13T18:37:39;11.80;99.90
324;DHT22;149;51.094;17.002;2023-03-13T18:40:16;11.80;99.90
324;DHT22;149;51.094;17.002;2023-03-13T18:42:44;11.70;99.90
324;DHT22;149;51.094;17.002;2023-03-13T18:45:17;11.80;99.90
324;DHT22;149;51.094;17.002;2023-03-13T18:47:45;11.70;99.90
324;DHT22;149;51.094;17.002;2023-03-13T18:50:21;11.70;99.90
324;DHT22;149;51.094;17.002;2023-03-13T18:52:53;11.60;99.90
324;DHT22;149;51.094;17.002;2023-03-13T18:55:22;11.50;99.90